Time;durP1;ratioP1;P1;durP2;ratioP2;P2;SDS_P1;SDS_P2;PMS_P1;PMS_P2;Temp;Humidity;BMP_temperature;BMP_pressure;BME280_temperature;BME280_humidity;BME280_pressure;Samples;Min_cycle;Max_cycle;Signal;HPM_P1;HPM_P2
2022/05/05 00:01:51;;;;;;;;;;;9.60;99.90;;;;;;5058031;28;19963;-74
2022/05/05 00:04:19;;;;;;;;;;;9.60;99.90;;;;;;5057850;28;19909;-74
2022/05/05 00:06:45;;;;;;;;;;;9.50;99.90;;;;;;5058348;28;19924;-74
2022/05/05 00:09:10;;;;;;;;;;;9.40;99.90;;;;;;5058438;28;19909;-74
2022/05/05 00:14:23;;;;;;;;;;;9.30;99.90;;;;;;5058000;28;19940;-74
2022/05/05 00:16:52;;;;;;;;;;;9.20;99.90;;;;;;5057705;28;19909;-74
2022/05/05 00:19:18;;;;;;;;;;;9.00;99.90;;;;;;5056429;28;19909;-74
2022/05/05 00:21:43;;;;;;;;;;;8.90;99.90;;;;;;5057815;28;19909;-74
2022/05/05 00:24:09;;;;;;;;;;;8.80;99.90;;;;;;5057710;28;20319;-74
2022/05/05 00:26:34;;;;;;;;;;;8.80;99.90;;;;;;5058276;28;19917;-74
2022/05/05 00:29:00;;;;;;;;;;;8.70;99.90;;;;;;5058073;28;20236;-74
2022/05/05 00:31:26;;;;;;;;;;;8.70;99.90;;;;;;5057745;28;19916;-74
2022/05/05 00:33:51;;;;;;;;;;;8.60;99.90;;;;;;5057515;28;20281;-74
2022/05/05 00:36:17;;;;;;;;;;;8.50;99.90;;;;;;5057596;28;19909;-74
2022/05/05 00:38:42;;;;;;;;;;;8.50;99.90;;;;;;5055881;28;20076;-74
2022/05/05 00:41:08;;;;;;;;;;;8.40;99.90;;;;;;5054729;28;19909;-74
2022/05/05 00:43:34;;;;;;;;;;;8.40;99.90;;;;;;5054248;28;19962;-74
2022/05/05 00:46:00;;;;;;;;;;;8.30;99.90;;;;;;5054523;28;20284;-74
2022/05/05 00:48:27;;;;;;;;;;;8.30;99.90;;;;;;5056800;28;20397;-74
2022/05/05 00:50:52;;;;;;;;;;;8.40;99.90;;;;;;5060171;28;19909;-73
2022/05/05 00:53:18;;;;;;;;;;;8.40;99.90;;;;;;5054005;28;19909;-74
2022/05/05 00:55:44;;;;;;;;;;;8.50;99.90;;;;;;5054439;28;19916;-74
2022/05/05 00:58:09;;;;;;;;;;;8.50;99.90;;;;;;5052904;28;19955;-74
2022/05/05 01:00:35;;;;;;;;;;;8.50;99.90;;;;;;5054139;28;20010;-74
2022/05/05 01:03:01;;;;;;;;;;;8.50;99.90;;;;;;5054116;28;20362;-74
2022/05/05 01:05:30;;;;;;;;;;;8.40;99.90;;;;;;5053845;28;19948;-74
2022/05/05 01:07:58;;;;;;;;;;;8.40;99.90;;;;;;5054124;28;20499;-74
2022/05/05 01:10:27;;;;;;;;;;;8.50;99.90;;;;;;5073428;28;20374;-74
2022/05/05 01:12:53;;;;;;;;;;;8.40;99.90;;;;;;5073081;28;19916;-73
2022/05/05 01:15:19;;;;;;;;;;;8.30;99.90;;;;;;5073033;28;19995;-74
2022/05/05 01:17:44;;;;;;;;;;;8.30;99.90;;;;;;5055505;28;20001;-74
2022/05/05 01:20:14;;;;;;;;;;;8.30;99.90;;;;;;5053764;28;20004;-74
2022/05/05 01:22:39;;;;;;;;;;;8.20;99.90;;;;;;5053740;28;19999;-74
2022/05/05 01:30:33;;;;;;;;;;;8.20;99.90;;;;;;5053770;28;19916;-74
2022/05/05 01:32:59;;;;;;;;;;;8.20;99.90;;;;;;5053459;28;19909;-74
2022/05/05 01:35:24;;;;;;;;;;;8.20;99.90;;;;;;5051404;28;19908;-74
2022/05/05 01:37:50;;;;;;;;;;;8.20;99.90;;;;;;5053470;28;19909;-74
2022/05/05 01:40:16;;;;;;;;;;;8.20;99.90;;;;;;5052626;28;19916;-73
2022/05/05 01:42:41;;;;;;;;;;;8.10;99.90;;;;;;5053772;28;19920;-73
2022/05/05 01:45:07;;;;;;;;;;;7.90;99.90;;;;;;5053179;28;19913;-73
2022/05/05 01:47:33;;;;;;;;;;;7.90;99.90;;;;;;5053544;28;20356;-74
2022/05/05 01:49:59;;;;;;;;;;;7.90;99.90;;;;;;5051707;28;19974;-74
2022/05/05 01:52:24;;;;;;;;;;;7.90;99.90;;;;;;5052473;28;19909;-73
2022/05/05 01:54:50;;;;;;;;;;;8.00;99.90;;;;;;5053092;28;20004;-74
2022/05/05 01:57:15;;;;;;;;;;;7.80;99.90;;;;;;5053323;28;19978;-74
2022/05/05 01:59:41;;;;;;;;;;;7.70;99.90;;;;;;5053237;28;19909;-74
2022/05/05 02:02:06;;;;;;;;;;;7.80;99.90;;;;;;5053065;28;20393;-74
2022/05/05 02:04:32;;;;;;;;;;;7.70;99.90;;;;;;5052883;28;20362;-74
2022/05/05 02:06:57;;;;;;;;;;;7.70;99.90;;;;;;5052914;28;19962;-74
2022/05/05 02:09:23;;;;;;;;;;;7.50;99.90;;;;;;5053048;28;20262;-74
2022/05/05 02:11:48;;;;;;;;;;;7.40;99.90;;;;;;5046116;28;19908;-74
2022/05/05 02:14:14;;;;;;;;;;;7.30;99.90;;;;;;5052786;28;20282;-74
2022/05/05 02:16:39;;;;;;;;;;;7.30;99.90;;;;;;5052867;28;20420;-74
2022/05/05 02:19:05;;;;;;;;;;;7.30;99.90;;;;;;5052218;28;19909;-73
2022/05/05 02:21:30;;;;;;;;;;;7.30;99.90;;;;;;5058275;28;20362;-74
2022/05/05 02:23:56;;;;;;;;;;;7.40;99.90;;;;;;5052469;28;19959;-74
2022/05/05 02:26:21;;;;;;;;;;;7.30;99.90;;;;;;5052796;28;19920;-74
2022/05/05 02:28:49;;;;;;;;;;;7.30;99.90;;;;;;5052862;28;20225;-74
2022/05/05 02:31:15;;;;;;;;;;;7.30;99.90;;;;;;5051724;28;20273;-74
2022/05/05 02:33:41;;;;;;;;;;;7.40;99.90;;;;;;5052283;28;20285;-74
2022/05/05 02:38:50;;;;;;;;;;;7.20;99.90;;;;;;5052231;28;19951;-74
2022/05/05 02:41:15;;;;;;;;;;;7.30;99.90;;;;;;5052274;28;19948;-74
2022/05/05 02:43:41;;;;;;;;;;;7.60;99.90;;;;;;5052119;28;19909;-74
2022/05/05 02:46:06;;;;;;;;;;;7.70;99.90;;;;;;5052129;28;19920;-74
2022/05/05 02:48:32;;;;;;;;;;;7.80;99.90;;;;;;5052154;28;19912;-74
2022/05/05 02:50:57;;;;;;;;;;;7.80;99.90;;;;;;5052164;28;20362;-73
2022/05/05 02:56:07;;;;;;;;;;;7.70;99.90;;;;;;5052056;28;20415;-74
2022/05/05 02:58:32;;;;;;;;;;;7.80;99.90;;;;;;5052054;28;19913;-74
2022/05/05 03:00:58;;;;;;;;;;;7.90;99.90;;;;;;5051706;28;19931;-74
2022/05/05 03:03:23;;;;;;;;;;;7.90;99.90;;;;;;5050598;28;19920;-74
2022/05/05 03:05:49;;;;;;;;;;;7.90;99.90;;;;;;5045448;28;19913;-73
2022/05/05 03:08:14;;;;;;;;;;;7.90;99.90;;;;;;5051280;28;19909;-73
2022/05/05 03:10:40;;;;;;;;;;;8.00;99.90;;;;;;5051573;28;20007;-73
2022/05/05 03:13:05;;;;;;;;;;;8.00;99.90;;;;;;5051429;28;19920;-73
2022/05/05 03:15:31;;;;;;;;;;;8.10;99.90;;;;;;5051940;28;19935;-74
2022/05/05 03:17:57;;;;;;;;;;;8.00;99.90;;;;;;5050767;28;19909;-74
2022/05/05 03:20:23;;;;;;;;;;;8.10;99.90;;;;;;5051927;28;19909;-74
2022/05/05 03:22:48;;;;;;;;;;;8.20;99.90;;;;;;5051855;28;20346;-73
2022/05/05 03:25:14;;;;;;;;;;;8.30;99.90;;;;;;5051749;28;20007;-73
2022/05/05 03:27:39;;;;;;;;;;;8.30;99.90;;;;;;5052080;28;19954;-74
2022/05/05 03:30:05;;;;;;;;;;;8.40;99.90;;;;;;5052028;28;19912;-74
2022/05/05 03:32:32;;;;;;;;;;;8.30;99.90;;;;;;5051676;28;19909;-74
2022/05/05 03:35:00;;;;;;;;;;;8.30;99.90;;;;;;5051751;28;19909;-74
2022/05/05 03:37:30;;;;;;;;;;;8.30;99.90;;;;;;5052040;28;19920;-74
2022/05/05 03:39:55;;;;;;;;;;;8.30;99.90;;;;;;5050602;28;19912;-74
2022/05/05 03:42:21;;;;;;;;;;;8.30;99.90;;;;;;5051748;28;19916;-74
2022/05/05 03:44:46;;;;;;;;;;;8.20;99.90;;;;;;5051446;28;20426;-74
2022/05/05 03:47:12;;;;;;;;;;;8.10;99.90;;;;;;5051313;28;19915;-74
2022/05/05 03:49:37;;;;;;;;;;;8.10;99.90;;;;;;5053963;28;19917;-74
2022/05/05 03:52:03;;;;;;;;;;;8.00;99.90;;;;;;5051494;28;20255;-74
2022/05/05 03:54:29;;;;;;;;;;;8.10;99.90;;;;;;5051529;28;19920;-74
2022/05/05 03:56:54;;;;;;;;;;;8.10;99.90;;;;;;5051741;28;19916;-74
2022/05/05 03:59:20;;;;;;;;;;;8.10;99.90;;;;;;5051935;28;20370;-74
2022/05/05 04:01:45;;;;;;;;;;;8.20;99.90;;;;;;5051087;28;19958;-74
2022/05/05 04:04:11;;;;;;;;;;;8.20;99.90;;;;;;5051367;28;20273;-74
2022/05/05 04:06:36;;;;;;;;;;;8.20;99.90;;;;;;5051532;28;20390;-74
2022/05/05 04:09:03;;;;;;;;;;;8.20;99.90;;;;;;5051742;28;19909;-74
2022/05/05 04:11:29;;;;;;;;;;;8.30;99.90;;;;;;5051370;28;19931;-74
2022/05/05 04:13:54;;;;;;;;;;;8.20;99.90;;;;;;5051108;28;20354;-74
2022/05/05 04:16:20;;;;;;;;;;;8.30;99.90;;;;;;5055343;28;20274;-74
2022/05/05 04:18:45;;;;;;;;;;;8.30;99.90;;;;;;5059022;28;19913;-74
2022/05/05 04:21:11;;;;;;;;;;;8.30;99.90;;;;;;5057852;28;19916;-74
2022/05/05 04:23:37;;;;;;;;;;;8.30;99.90;;;;;;5054849;28;19916;-74
2022/05/05 04:26:03;;;;;;;;;;;8.30;99.90;;;;;;5074540;28;19920;-74
2022/05/05 04:28:29;;;;;;;;;;;8.30;99.90;;;;;;5074224;28;20277;-74
2022/05/05 04:30:54;;;;;;;;;;;8.20;99.90;;;;;;5074290;28;19915;-74
2022/05/05 04:33:20;;;;;;;;;;;8.30;99.90;;;;;;5073780;28;19915;-74
2022/05/05 04:35:46;;;;;;;;;;;8.20;99.90;;;;;;5074200;28;19912;-73
2022/05/05 04:38:11;;;;;;;;;;;8.20;99.90;;;;;;5074136;28;20431;-73
2022/05/05 04:40:37;;;;;;;;;;;8.30;99.90;;;;;;5073869;28;19912;-73
2022/05/05 04:43:02;;;;;;;;;;;8.20;99.90;;;;;;5073454;28;19909;-73
2022/05/05 04:45:28;;;;;;;;;;;8.30;99.90;;;;;;5073480;28;19916;-74
2022/05/05 04:47:54;;;;;;;;;;;8.30;99.90;;;;;;5059974;28;19970;-74
2022/05/05 04:50:19;;;;;;;;;;;8.30;99.90;;;;;;5054500;28;19916;-74
2022/05/05 04:52:45;;;;;;;;;;;8.30;99.90;;;;;;5054460;28;19919;-73
2022/05/05 04:55:10;;;;;;;;;;;8.40;99.90;;;;;;5054419;28;19961;-74
2022/05/05 04:57:37;;;;;;;;;;;8.50;99.90;;;;;;5054740;28;20370;-74
2022/05/05 05:00:04;;;;;;;;;;;8.60;99.90;;;;;;5054280;28;19949;-74
2022/05/05 05:02:30;;;;;;;;;;;8.70;99.90;;;;;;5054283;28;19916;-74
2022/05/05 05:04:55;;;;;;;;;;;8.80;99.90;;;;;;5054068;28;19916;-74
2022/05/05 05:07:21;;;;;;;;;;;8.90;99.90;;;;;;5054116;28;19913;-74
2022/05/05 05:09:48;;;;;;;;;;;9.00;99.90;;;;;;5054432;28;19913;-74
2022/05/05 05:12:14;;;;;;;;;;;9.10;99.90;;;;;;5054103;28;19912;-74
2022/05/05 05:14:39;;;;;;;;;;;9.20;99.90;;;;;;5053890;28;20329;-74
2022/05/05 05:17:05;;;;;;;;;;;9.40;99.90;;;;;;5054056;28;19948;-74
2022/05/05 05:19:30;;;;;;;;;;;9.50;99.90;;;;;;5055825;28;19912;-74
2022/05/05 05:21:56;;;;;;;;;;;9.70;99.90;;;;;;5073315;28;19915;-74
2022/05/05 05:24:21;;;;;;;;;;;9.80;99.90;;;;;;5072629;28;20388;-74
2022/05/05 05:26:47;;;;;;;;;;;9.80;99.90;;;;;;5073003;28;19963;-74
2022/05/05 05:29:12;;;;;;;;;;;9.70;99.90;;;;;;5072686;28;19970;-74
2022/05/05 05:31:38;;;;;;;;;;;9.70;99.90;;;;;;5072892;28;19908;-74
2022/05/05 05:34:04;;;;;;;;;;;9.90;99.90;;;;;;5072541;28;19940;-74
2022/05/05 05:36:29;;;;;;;;;;;9.90;99.90;;;;;;5072827;28;19915;-74
2022/05/05 05:38:55;;;;;;;;;;;10.00;99.90;;;;;;5072861;28;19913;-74
2022/05/05 05:41:20;;;;;;;;;;;10.20;99.90;;;;;;5072446;28;20265;-74
2022/05/05 05:43:46;;;;;;;;;;;10.40;99.90;;;;;;5072161;28;20446;-74
2022/05/05 05:46:11;;;;;;;;;;;10.50;99.90;;;;;;5070579;28;19924;-74
2022/05/05 05:48:38;;;;;;;;;;;10.70;99.90;;;;;;5057674;28;20020;-74
2022/05/05 05:51:05;;;;;;;;;;;10.80;99.90;;;;;;5053143;28;19913;-74
2022/05/05 05:53:31;;;;;;;;;;;10.90;99.90;;;;;;5052779;28;19915;-74
2022/05/05 05:55:56;;;;;;;;;;;10.90;99.90;;;;;;5053365;28;19995;-74
2022/05/05 05:58:22;;;;;;;;;;;10.80;99.90;;;;;;5053301;28;19951;-74
2022/05/05 06:00:47;;;;;;;;;;;11.00;99.90;;;;;;5053165;28;20008;-74
2022/05/05 06:05:57;;;;;;;;;;;11.60;99.90;;;;;;5053017;28;20016;-74
2022/05/05 06:08:23;;;;;;;;;;;11.70;99.90;;;;;;5046386;28;19996;-74
2022/05/05 06:10:48;;;;;;;;;;;11.70;99.90;;;;;;5052813;28;19909;-74
2022/05/05 06:13:14;;;;;;;;;;;11.70;99.90;;;;;;5050044;28;19917;-74
2022/05/05 06:15:39;;;;;;;;;;;11.80;99.90;;;;;;5051479;28;19940;-73
2022/05/05 06:18:05;;;;;;;;;;;11.80;99.90;;;;;;5051072;28;19909;-74
2022/05/05 06:20:32;;;;;;;;;;;11.90;99.90;;;;;;5050312;28;20105;-74
2022/05/05 06:22:58;;;;;;;;;;;12.00;99.90;;;;;;5047865;28;20320;-74
2022/05/05 06:25:24;;;;;;;;;;;12.10;99.90;;;;;;5052232;28;19999;-73
2022/05/05 06:27:50;;;;;;;;;;;12.20;99.90;;;;;;5052099;28;19996;-73
2022/05/05 06:30:16;;;;;;;;;;;12.10;99.90;;;;;;5052355;28;20003;-73
2022/05/05 06:32:42;;;;;;;;;;;12.10;99.90;;;;;;5051844;28;19999;-73
2022/05/05 06:35:09;;;;;;;;;;;12.20;99.90;;;;;;5051821;28;19909;-73
2022/05/05 06:37:34;;;;;;;;;;;12.20;99.90;;;;;;5051766;28;20378;-73
2022/05/05 06:40:02;;;;;;;;;;;12.00;99.90;;;;;;5053040;28;19915;-74
2022/05/05 06:42:28;;;;;;;;;;;12.00;99.90;;;;;;5046053;28;19923;-74
2022/05/05 06:44:54;;;;;;;;;;;12.00;99.90;;;;;;5049933;28;19909;-74
2022/05/05 06:47:19;;;;;;;;;;;12.10;99.90;;;;;;5051575;28;19913;-73
2022/05/05 06:49:45;;;;;;;;;;;12.20;99.90;;;;;;5052277;28;19921;-73
2022/05/05 06:52:10;;;;;;;;;;;12.20;99.90;;;;;;5052840;28;19909;-74
2022/05/05 06:54:36;;;;;;;;;;;12.30;99.90;;;;;;5051548;28;19912;-74
2022/05/05 06:57:02;;;;;;;;;;;12.30;99.90;;;;;;5052026;28;19912;-73
2022/05/05 06:59:27;;;;;;;;;;;12.30;99.90;;;;;;5051890;28;20019;-74
2022/05/05 07:01:53;;;;;;;;;;;12.30;99.90;;;;;;5051180;28;19999;-73
2022/05/05 07:07:05;;;;;;;;;;;12.40;99.90;;;;;;5051595;28;20008;-73
2022/05/05 07:12:15;;;;;;;;;;;12.70;99.90;;;;;;5051973;28;19962;-74
2022/05/05 07:14:41;;;;;;;;;;;12.60;99.90;;;;;;5044761;28;19909;-74
2022/05/05 07:17:08;;;;;;;;;;;12.80;99.90;;;;;;5051574;28;19909;-74
2022/05/05 07:19:33;;;;;;;;;;;12.90;99.90;;;;;;5055204;28;19908;-73
2022/05/05 07:21:59;;;;;;;;;;;12.80;99.90;;;;;;5051533;28;19920;-74
2022/05/05 07:24:24;;;;;;;;;;;12.80;99.90;;;;;;5046474;28;19910;-73
2022/05/05 07:26:50;;;;;;;;;;;12.80;99.90;;;;;;5051174;28;20095;-74
2022/05/05 07:29:16;;;;;;;;;;;13.10;99.90;;;;;;5051393;28;20281;-74
2022/05/05 07:31:41;;;;;;;;;;;12.80;99.90;;;;;;5051457;28;20362;-74
2022/05/05 07:34:07;;;;;;;;;;;12.80;99.90;;;;;;5051022;28;19908;-74
2022/05/05 07:36:33;;;;;;;;;;;12.90;99.90;;;;;;5051365;28;19913;-73
2022/05/05 07:38:58;;;;;;;;;;;12.90;99.90;;;;;;5051522;28;20426;-73
2022/05/05 07:41:24;;;;;;;;;;;13.10;99.90;;;;;;5051199;28;19909;-74
2022/05/05 07:43:50;;;;;;;;;;;13.10;99.90;;;;;;5049143;28;19916;-74
2022/05/05 07:46:17;;;;;;;;;;;12.90;99.90;;;;;;5051115;28;19920;-74
2022/05/05 07:48:43;;;;;;;;;;;12.80;99.90;;;;;;5050007;28;19912;-73
2022/05/05 07:51:09;;;;;;;;;;;12.80;99.90;;;;;;5055210;28;19948;-74
2022/05/05 07:53:34;;;;;;;;;;;13.20;99.90;;;;;;5054803;28;19995;-74
2022/05/05 07:56:00;;;;;;;;;;;13.20;99.90;;;;;;5055664;28;20007;-73
2022/05/05 07:58:25;;;;;;;;;;;13.40;99.90;;;;;;5055270;28;19917;-74
2022/05/05 08:00:51;;;;;;;;;;;13.50;99.90;;;;;;5053840;28;20451;-73
2022/05/05 08:03:16;;;;;;;;;;;13.50;99.90;;;;;;5053837;28;19951;-74
2022/05/05 08:05:42;;;;;;;;;;;13.60;99.90;;;;;;5053425;28;19913;-74
2022/05/05 08:08:08;;;;;;;;;;;13.90;99.90;;;;;;5055184;28;20338;-75
2022/05/05 08:10:33;;;;;;;;;;;13.70;99.90;;;;;;5055237;28;19909;-73
2022/05/05 08:12:59;;;;;;;;;;;13.80;99.90;;;;;;5053306;28;19909;-74
2022/05/05 08:15:24;;;;;;;;;;;14.00;99.90;;;;;;5054579;28;19992;-74
2022/05/05 08:17:49;;;;;;;;;;;14.00;99.90;;;;;;5055204;28;19978;-73
2022/05/05 08:20:15;;;;;;;;;;;14.20;99.90;;;;;;5054834;28;20140;-73
2022/05/05 08:22:41;;;;;;;;;;;14.00;99.90;;;;;;5054637;28;19916;-74
2022/05/05 08:30:36;;;;;;;;;;;14.20;99.90;;;;;;5054388;28;19920;-75
2022/05/05 08:33:02;;;;;;;;;;;14.20;99.90;;;;;;5054340;28;19909;-74
2022/05/05 08:35:27;;;;;;;;;;;13.80;99.90;;;;;;5053919;28;19945;-74
2022/05/05 08:37:53;;;;;;;;;;;13.70;99.90;;;;;;5054676;28;20316;-74
2022/05/05 08:40:21;;;;;;;;;;;13.60;99.90;;;;;;5054375;28;19954;-74
2022/05/05 08:42:47;;;;;;;;;;;13.50;99.90;;;;;;5053077;28;20316;-73
2022/05/05 08:45:12;;;;;;;;;;;13.60;99.90;;;;;;5053528;28;19916;-75
2022/05/05 08:47:39;;;;;;;;;;;13.50;99.90;;;;;;5054221;28;19916;-74
2022/05/05 08:50:07;;;;;;;;;;;13.50;99.90;;;;;;5054249;28;19917;-74
2022/05/05 08:52:40;;;;;;;;;;;13.30;99.90;;;;;;5054064;28;19962;-74
2022/05/05 08:55:06;;;;;;;;;;;13.10;99.90;;;;;;5053815;28;19913;-74
2022/05/05 08:57:31;;;;;;;;;;;13.00;99.90;;;;;;5053859;28;19912;-75
2022/05/05 08:59:57;;;;;;;;;;;13.00;99.90;;;;;;5053293;28;20043;-74
2022/05/05 09:02:23;;;;;;;;;;;13.10;99.90;;;;;;5053943;28;20043;-74
2022/05/05 09:04:49;;;;;;;;;;;12.80;99.90;;;;;;5054496;28;19913;-74
2022/05/05 09:07:14;;;;;;;;;;;12.60;99.90;;;;;;5054484;28;19974;-74
2022/05/05 09:09:40;;;;;;;;;;;12.50;99.90;;;;;;5054305;28;20033;-74
2022/05/05 09:12:14;;;;;;;;;;;12.60;99.90;;;;;;5053493;28;19966;-74
2022/05/05 09:14:46;;;;;;;;;;;12.60;99.90;;;;;;5053575;28;19999;-74
2022/05/05 09:17:13;;;;;;;;;;;12.60;99.90;;;;;;5052268;28;19909;-75
2022/05/05 09:19:39;;;;;;;;;;;12.80;99.90;;;;;;5053880;28;19909;-74
2022/05/05 09:22:05;;;;;;;;;;;12.70;99.90;;;;;;5053619;28;19909;-74
2022/05/05 09:24:43;;;;;;;;;;;12.70;99.90;;;;;;5052708;28;19909;-73
2022/05/05 09:27:28;;;;;;;;;;;12.90;99.90;;;;;;5053283;28;19912;-74
2022/05/05 09:30:04;;;;;;;;;;;13.00;99.90;;;;;;5054057;28;19948;-73
2022/05/05 09:32:37;;;;;;;;;;;12.70;99.90;;;;;;5052337;28;19909;-74
2022/05/05 09:35:06;;;;;;;;;;;13.00;99.90;;;;;;5052393;28;19968;-73
2022/05/05 09:37:32;;;;;;;;;;;13.00;99.90;;;;;;5069714;28;19908;-75
2022/05/05 09:39:58;;;;;;;;;;;13.10;99.90;;;;;;5072401;28;19908;-74
2022/05/05 09:42:36;;;;;;;;;;;13.20;99.90;;;;;;5063118;28;19931;-75
2022/05/05 09:45:18;;;;;;;;;;;13.30;99.90;;;;;;5054554;28;20277;-75
2022/05/05 09:47:49;;;;;;;;;;;13.20;99.90;;;;;;5046347;28;20295;-74
2022/05/05 09:50:14;;;;;;;;;;;13.20;99.90;;;;;;5053156;28;19923;-75
2022/05/05 09:58:14;;;;;;;;;;;13.20;99.90;;;;;;5052961;28;19931;-74
2022/05/05 10:00:46;;;;;;;;;;;13.40;99.90;;;;;;5051152;28;19944;-74
2022/05/05 10:05:59;;;;;;;;;;;13.40;99.90;;;;;;5048373;28;19963;-74
2022/05/05 10:08:38;;;;;;;;;;;13.40;99.90;;;;;;5052566;28;19909;-75
2022/05/05 10:11:05;;;;;;;;;;;13.60;99.90;;;;;;5052065;28;20370;-74
2022/05/05 10:13:32;;;;;;;;;;;13.90;99.90;;;;;;5051934;28;20292;-75
2022/05/05 10:15:59;;;;;;;;;;;13.60;99.90;;;;;;5052464;28;19912;-74
2022/05/05 10:18:24;;;;;;;;;;;13.60;99.90;;;;;;5049728;28;19908;-74
2022/05/05 10:20:50;;;;;;;;;;;13.80;99.90;;;;;;5052731;28;19936;-74
2022/05/05 10:23:27;;;;;;;;;;;13.90;99.90;;;;;;5052487;28;19919;-74
2022/05/05 10:25:52;;;;;;;;;;;14.10;99.90;;;;;;5050684;28;19935;-74
2022/05/05 10:28:37;;;;;;;;;;;14.00;99.90;;;;;;5051893;28;19909;-74
2022/05/05 10:31:02;;;;;;;;;;;14.00;99.90;;;;;;5052297;28;20288;-73
2022/05/05 10:33:46;;;;;;;;;;;13.70;99.90;;;;;;5051720;28;19930;-74
2022/05/05 10:36:22;;;;;;;;;;;13.60;99.90;;;;;;5052313;28;19916;-74
2022/05/05 10:38:49;;;;;;;;;;;13.60;99.90;;;;;;5052045;28;19916;-76
2022/05/05 10:41:30;;;;;;;;;;;13.30;99.90;;;;;;5051930;28;19909;-73
2022/05/05 10:44:13;;;;;;;;;;;13.60;99.90;;;;;;5047846;28;19909;-75
2022/05/05 10:46:51;;;;;;;;;;;13.40;99.90;;;;;;5058804;28;19920;-73
2022/05/05 10:49:37;;;;;;;;;;;13.30;99.90;;;;;;5052735;28;20288;-73
2022/05/05 10:52:12;;;;;;;;;;;13.50;99.90;;;;;;5052240;28;19916;-73
2022/05/05 10:54:41;;;;;;;;;;;13.60;99.90;;;;;;5052308;28;20339;-73
2022/05/05 10:57:25;;;;;;;;;;;13.80;99.90;;;;;;5052191;28;20288;-73
2022/05/05 11:00:09;;;;;;;;;;;13.80;99.90;;;;;;5052129;28;19909;-74
2022/05/05 11:02:35;;;;;;;;;;;13.50;99.90;;;;;;5051992;28;20395;-74
2022/05/05 11:05:20;;;;;;;;;;;13.60;99.90;;;;;;5052005;28;19913;-74
2022/05/05 11:07:49;;;;;;;;;;;13.50;99.90;;;;;;5052123;28;19919;-74
2022/05/05 11:10:33;;;;;;;;;;;13.60;99.90;;;;;;5051070;28;20293;-74
2022/05/05 11:12:59;;;;;;;;;;;13.60;99.90;;;;;;5051667;28;19916;-74
2022/05/05 11:23:56;;;;;;;;;;;13.50;99.90;;;;;;5045947;28;19916;-74
2022/05/05 11:26:21;;;;;;;;;;;13.60;99.90;;;;;;5051771;28;19912;-74
2022/05/05 11:28:48;;;;;;;;;;;13.40;99.90;;;;;;5054917;28;19916;-74
2022/05/05 11:31:19;;;;;;;;;;;13.50;99.90;;;;;;5051476;28;19991;-76
2022/05/05 11:33:48;;;;;;;;;;;13.60;99.90;;;;;;5067324;28;19915;-74
2022/05/05 11:36:13;;;;;;;;;;;13.80;99.90;;;;;;5063896;28;19916;-74
2022/05/05 11:38:41;;;;;;;;;;;13.80;99.90;;;;;;5071099;28;19909;-74
2022/05/05 11:41:07;;;;;;;;;;;14.00;99.90;;;;;;5071101;28;20307;-74
2022/05/05 11:44:18;;;;;;;;;;;14.30;99.90;;;;;;5052453;28;20000;-73
2022/05/05 11:46:19;;;;;;;;;;;14.10;99.90;;;;;;5047045;28;20373;-76
2022/05/05 11:48:53;;;;;;;;;;;13.70;99.90;;;;;;5050067;28;19917;-76
2022/05/05 11:51:33;;;;;;;;;;;13.50;99.90;;;;;;5050734;28;20372;-74
2022/05/05 11:54:04;;;;;;;;;;;13.80;99.90;;;;;;5051067;28;19909;-74
2022/05/05 11:56:29;;;;;;;;;;;14.60;99.90;;;;;;5051295;28;20270;-74
2022/05/05 12:01:42;;;;;;;;;;;15.30;99.90;;;;;;5051035;28;19916;-74
2022/05/05 12:04:12;;;;;;;;;;;15.70;99.90;;;;;;5053248;28;20003;-74
2022/05/05 12:06:39;;;;;;;;;;;15.50;99.90;;;;;;5051271;28;19920;-74
2022/05/05 12:09:05;;;;;;;;;;;15.30;99.90;;;;;;5051171;28;19908;-74
2022/05/05 12:11:31;;;;;;;;;;;15.30;99.90;;;;;;5049742;28;20350;-74
2022/05/05 12:14:06;;;;;;;;;;;16.10;99.90;;;;;;5051047;28;19909;-74
2022/05/05 12:16:32;;;;;;;;;;;15.50;99.90;;;;;;5051325;28;20277;-74
2022/05/05 12:18:58;;;;;;;;;;;15.10;99.90;;;;;;5051679;28;20259;-75
2022/05/05 12:21:24;;;;;;;;;;;15.40;99.90;;;;;;5050837;28;19970;-74
2022/05/05 12:23:56;;;;;;;;;;;16.10;99.90;;;;;;5050154;28;19916;-77
2022/05/05 12:26:26;;;;;;;;;;;17.30;99.90;;;;;;5058581;28;20013;-74
2022/05/05 12:28:52;;;;;;;;;;;17.80;99.90;;;;;;5050740;28;20354;-75
2022/05/05 12:31:21;;;;;;;;;;;19.70;99.90;;;;;;5050706;28;19916;-74
2022/05/05 12:33:47;;;;;;;;;;;21.30;99.90;;;;;;5050209;28;19999;-74
2022/05/05 12:36:16;;;;;;;;;;;22.10;99.50;;;;;;5058341;28;19962;-74
2022/05/05 12:38:42;;;;;;;;;;;19.80;99.20;;;;;;5073397;28;20564;-74
2022/05/05 12:41:08;;;;;;;;;;;16.90;99.90;;;;;;5073420;28;19959;-74
2022/05/05 12:43:34;;;;;;;;;;;16.30;99.90;;;;;;5055688;28;19909;-74
2022/05/05 12:46:03;;;;;;;;;;;15.30;99.90;;;;;;5055419;28;20357;-74
2022/05/05 12:48:29;;;;;;;;;;;15.50;99.90;;;;;;5054103;28;20288;-74
2022/05/05 12:50:54;;;;;;;;;;;15.10;99.90;;;;;;5053227;28;19915;-77
2022/05/05 13:01:35;;;;;;;;;;;17.20;99.90;;;;;;5053697;28;20384;-74
2022/05/05 13:04:05;;;;;;;;;;;17.80;99.90;;;;;;5053521;28;20377;-74
2022/05/05 13:06:31;;;;;;;;;;;17.30;99.90;;;;;;5052817;28;19975;-74
2022/05/05 13:08:56;;;;;;;;;;;18.80;99.90;;;;;;5055108;28;20361;-74
2022/05/05 13:11:22;;;;;;;;;;;19.40;99.90;;;;;;5053695;28;20277;-74
2022/05/05 13:13:49;;;;;;;;;;;19.80;99.00;;;;;;5053156;28;19908;-74
2022/05/05 13:16:14;;;;;;;;;;;19.40;98.50;;;;;;5053718;28;19996;-74
2022/05/05 13:18:40;;;;;;;;;;;19.60;98.10;;;;;;5053640;28;19913;-74
2022/05/05 13:21:05;;;;;;;;;;;19.30;98.30;;;;;;5052780;28;19913;-74
2022/05/05 13:23:31;;;;;;;;;;;18.50;97.40;;;;;;5059067;28;19912;-74
2022/05/05 13:25:57;;;;;;;;;;;18.80;97.60;;;;;;5056620;28;20252;-74
2022/05/05 13:28:22;;;;;;;;;;;18.30;97.80;;;;;;5053220;28;19916;-74
2022/05/05 13:30:48;;;;;;;;;;;17.90;99.10;;;;;;5053370;28;20005;-74
2022/05/05 13:33:14;;;;;;;;;;;18.30;99.90;;;;;;5053050;28;20293;-74
2022/05/05 13:35:39;;;;;;;;;;;18.10;97.90;;;;;;5052794;28;19916;-74
2022/05/05 13:38:05;;;;;;;;;;;17.40;99.00;;;;;;5053121;28;20428;-74
2022/05/05 13:40:30;;;;;;;;;;;16.80;99.20;;;;;;5053447;28;19944;-74
2022/05/05 13:42:56;;;;;;;;;;;16.60;99.90;;;;;;5050156;28;19913;-74
2022/05/05 13:45:22;;;;;;;;;;;17.10;99.90;;;;;;5054585;28;19970;-74
2022/05/05 13:47:47;;;;;;;;;;;18.60;99.90;;;;;;5051940;28;20342;-74
2022/05/05 13:50:13;;;;;;;;;;;18.70;99.70;;;;;;5052884;28;20007;-73
2022/05/05 13:52:45;;;;;;;;;;;17.80;99.90;;;;;;5052819;28;19936;-74
2022/05/05 13:55:11;;;;;;;;;;;17.60;99.40;;;;;;5052898;28;19909;-74
2022/05/05 13:57:37;;;;;;;;;;;18.40;97.10;;;;;;5052889;28;19919;-74
2022/05/05 14:00:03;;;;;;;;;;;18.10;99.50;;;;;;5053098;28;20435;-74
2022/05/05 14:02:29;;;;;;;;;;;19.20;97.90;;;;;;5051684;28;19909;-74
2022/05/05 14:04:54;;;;;;;;;;;19.50;95.40;;;;;;5052336;28;19908;-73
2022/05/05 14:12:10;;;;;;;;;;;19.00;98.00;;;;;;5052895;28;20380;-74
2022/05/05 14:12:50;;;;;;;;;;;20.90;95.20;;;;;;5051651;28;19916;-74
2022/05/05 14:15:16;;;;;;;;;;;21.10;93.90;;;;;;5052625;28;19909;-74
2022/05/05 14:17:41;;;;;;;;;;;18.90;95.10;;;;;;5050706;28;19909;-74
2022/05/05 14:20:07;;;;;;;;;;;18.00;96.80;;;;;;5052096;28;19916;-74
2022/05/05 14:22:32;;;;;;;;;;;20.10;95.10;;;;;;5052015;28;19931;-74
2022/05/05 14:24:58;;;;;;;;;;;19.70;93.70;;;;;;5047988;28;20143;-74
2022/05/05 14:27:23;;;;;;;;;;;19.50;94.90;;;;;;5063307;28;19908;-74
2022/05/05 14:29:49;;;;;;;;;;;18.60;95.50;;;;;;5052453;28;20273;-74
2022/05/05 14:32:14;;;;;;;;;;;18.80;96.60;;;;;;5052022;28;19920;-74
2022/05/05 14:34:40;;;;;;;;;;;18.80;97.10;;;;;;5052201;28;19909;-74
2022/05/05 14:37:06;;;;;;;;;;;18.50;95.30;;;;;;5050579;28;19913;-74
2022/05/05 14:39:32;;;;;;;;;;;17.60;97.00;;;;;;5052103;28;19912;-74
2022/05/05 14:41:57;;;;;;;;;;;19.10;95.80;;;;;;5051737;28;19913;-74
2022/05/05 14:44:23;;;;;;;;;;;19.50;93.20;;;;;;5049330;28;19909;-74
2022/05/05 14:46:49;;;;;;;;;;;18.70;95.50;;;;;;5052396;28;19914;-74
2022/05/05 14:49:15;;;;;;;;;;;16.90;97.60;;;;;;5052102;28;19917;-73
2022/05/05 14:51:40;;;;;;;;;;;16.60;96.70;;;;;;5052713;28;19909;-73
2022/05/05 14:54:06;;;;;;;;;;;16.60;98.10;;;;;;5052262;28;19916;-74
2022/05/05 14:56:31;;;;;;;;;;;15.80;99.10;;;;;;5052545;28;19920;-74
2022/05/05 14:58:57;;;;;;;;;;;16.30;99.70;;;;;;5051489;28;19909;-74
2022/05/05 15:01:22;;;;;;;;;;;18.20;96.80;;;;;;5052207;28;20270;-74
2022/05/05 15:03:48;;;;;;;;;;;19.40;95.40;;;;;;5064946;28;19909;-74
2022/05/05 15:06:15;;;;;;;;;;;17.30;97.20;;;;;;5070670;28;19919;-74
2022/05/05 15:08:42;;;;;;;;;;;16.50;99.00;;;;;;5071581;28;20366;-74
2022/05/05 15:11:07;;;;;;;;;;;16.90;99.20;;;;;;5069612;28;19909;-74
2022/05/05 15:13:33;;;;;;;;;;;17.40;98.30;;;;;;5058344;28;19916;-74
2022/05/05 15:15:58;;;;;;;;;;;17.20;98.70;;;;;;5051987;28;19909;-74
2022/05/05 15:18:24;;;;;;;;;;;17.30;99.20;;;;;;5058178;28;19909;-74